Time;durP1;ratioP1;P1;durP2;ratioP2;P2;SDS_P1;SDS_P2;PMS_P1;PMS_P2;Temp;Humidity;BMP_temperature;BMP_pressure;BME280_temperature;BME280_humidity;BME280_pressure;Samples;Min_cycle;Max_cycle;Signal;HPM_P1;HPM_P2
2023/06/30 00:01:14;;;;;;;10.90;2.40;;;;;;;15.61;77.99;99909.19;106079;1277;23335;-62
2023/06/30 00:03:52;;;;;;;8.10;2.20;;;;;;;15.59;78.00;99904.96;106113;1280;22563;-59
2023/06/30 00:06:22;;;;;;;9.90;2.70;;;;;;;15.56;78.20;99906.34;106066;1280;22898;-61
2023/06/30 00:08:54;;;;;;;8.10;2.50;;;;;;;15.52;78.41;99903.41;102207;1275;5471519;-60
2023/06/30 00:11:25;;;;;;;11.00;2.90;;;;;;;15.49;78.47;99901.49;106245;1280;22586;-59
2023/06/30 00:13:56;;;;;;;12.30;2.80;;;;;;;15.45;78.93;99901.63;106200;1268;24266;-61
2023/06/30 00:16:27;;;;;;;10.40;3.10;;;;;;;15.41;78.98;99906.51;106285;1277;22519;-61
2023/06/30 00:18:58;;;;;;;11.30;3.00;;;;;;;15.38;79.01;99901.33;106280;1281;22962;-62
2023/06/30 00:21:28;;;;;;;9.80;3.20;;;;;;;15.35;79.19;99900.16;106319;1281;22553;-61
2023/06/30 00:24:01;;;;;;;14.60;3.00;;;;;;;15.32;79.19;99901.10;109941;1281;22333;-61
2023/06/30 00:26:32;;;;;;;9.00;2.40;;;;;;;15.29;79.43;99897.98;109953;1280;22195;-62
2023/06/30 00:29:03;;;;;;;8.40;2.60;;;;;;;15.26;79.70;99896.64;109940;1267;22944;-61
2023/06/30 00:31:34;;;;;;;8.80;2.70;;;;;;;15.24;79.94;99894.85;109960;1274;22196;-62
2023/06/30 00:34:05;;;;;;;7.70;2.60;;;;;;;15.22;80.02;99894.20;109982;1268;22162;-60
2023/06/30 00:36:36;;;;;;;8.50;2.60;;;;;;;15.21;80.36;99890.93;109957;1274;22273;-61
2023/06/30 00:39:07;;;;;;;10.80;3.00;;;;;;;15.20;80.60;99888.85;109954;1267;22214;-62
2023/06/30 00:41:38;;;;;;;10.10;3.20;;;;;;;15.19;80.75;99889.09;109985;1281;22922;-60
2023/06/30 00:44:09;;;;;;;8.60;2.70;;;;;;;15.20;80.96;99890.48;109949;1267;22163;-61
2023/06/30 00:46:40;;;;;;;11.40;3.30;;;;;;;15.22;81.24;99890.11;109969;1277;22161;-59
2023/06/30 00:49:11;;;;;;;14.50;3.10;;;;;;;15.24;81.65;99890.20;109950;1274;23204;-60
2023/06/30 00:51:42;;;;;;;9.50;3.40;;;;;;;15.25;81.70;99887.02;109941;1274;23216;-63
2023/06/30 00:54:14;;;;;;;9.00;3.40;;;;;;;15.29;82.14;99885.42;109943;1268;22254;-61
2023/06/30 00:56:45;;;;;;;8.00;2.90;;;;;;;15.31;81.99;99883.67;109958;1281;22920;-62
2023/06/30 00:59:16;;;;;;;10.90;3.40;;;;;;;15.35;82.13;99881.60;109958;1274;22812;-61
2023/06/30 01:01:54;;;;;;;12.10;4.20;;;;;;;15.38;82.23;99879.33;109955;1274;22238;-61
2023/06/30 01:04:34;;;;;;;8.90;2.50;;;;;;;15.41;82.43;99872.86;109957;1269;22252;-61
2023/06/30 01:07:10;;;;;;;9.50;3.10;;;;;;;15.42;82.56;99866.13;109952;1274;22159;-62
2023/06/30 01:09:48;;;;;;;8.50;3.40;;;;;;;15.45;83.02;99864.28;109956;1269;22170;-61
2023/06/30 01:12:19;;;;;;;11.70;3.20;;;;;;;15.47;83.39;99860.38;109955;1273;22154;-60
2023/06/30 01:14:53;;;;;;;9.10;3.30;;;;;;;15.49;83.62;99856.64;108001;1277;22940;-59
2023/06/30 01:17:26;;;;;;;11.60;3.70;;;;;;;15.51;83.62;99848.85;109966;1274;22185;-60
2023/06/30 01:19:59;;;;;;;10.00;3.60;;;;;;;15.52;83.72;99851.95;109945;1280;23077;-58
2023/06/30 01:22:34;;;;;;;13.40;3.90;;;;;;;15.54;83.74;99854.14;109947;1269;22983;-59
2023/06/30 01:25:10;;;;;;;10.80;3.50;;;;;;;15.56;83.86;99851.31;109969;1277;22120;-60
2023/06/30 01:27:43;;;;;;;12.70;3.30;;;;;;;15.58;83.85;99852.93;109948;1270;22214;-60
2023/06/30 01:30:14;;;;;;;11.50;4.50;;;;;;;15.61;84.09;99851.17;109960;1267;22537;-60
2023/06/30 01:32:47;;;;;;;9.80;3.10;;;;;;;15.63;84.00;99850.34;109961;1281;22165;-59
2023/06/30 01:35:17;;;;;;;12.00;3.70;;;;;;;15.65;84.17;99848.39;109971;1267;22189;-59
2023/06/30 01:37:48;;;;;;;9.10;3.40;;;;;;;15.65;84.32;99848.38;109945;1274;22183;-60
2023/06/30 01:40:19;;;;;;;10.90;3.40;;;;;;;15.67;84.37;99846.42;109941;1268;22165;-60
2023/06/30 01:42:54;;;;;;;12.50;4.00;;;;;;;15.69;84.54;99844.56;109943;1275;22135;-60
2023/06/30 01:45:26;;;;;;;12.80;3.80;;;;;;;15.71;84.73;99840.55;109981;1267;22177;-60
2023/06/30 01:47:58;;;;;;;11.30;4.40;;;;;;;15.72;84.80;99836.61;109973;1281;22140;-60
2023/06/30 01:50:31;;;;;;;12.50;3.70;;;;;;;15.73;84.87;99841.70;109994;1273;22184;-58
2023/06/30 01:53:02;;;;;;;10.90;3.30;;;;;;;15.75;84.91;99841.34;109942;1274;22127;-60
2023/06/30 01:55:34;;;;;;;8.40;3.50;;;;;;;15.77;85.08;99837.68;109964;1271;22206;-59
2023/06/30 01:58:05;;;;;;;10.90;3.70;;;;;;;15.78;85.00;99837.73;109977;1274;22319;-60
2023/06/30 02:00:36;;;;;;;13.30;3.60;;;;;;;15.78;85.05;99838.03;109948;1270;22206;-60
2023/06/30 02:03:06;;;;;;;7.90;3.20;;;;;;;15.80;85.06;99836.42;109935;1273;22405;-60
2023/06/30 02:05:37;;;;;;;12.20;3.60;;;;;;;15.83;84.79;99834.45;109944;1274;22169;-59
2023/06/30 02:08:08;;;;;;;12.00;4.50;;;;;;;15.87;84.78;99833.61;109949;1274;22154;-60
2023/06/30 02:10:39;;;;;;;8.40;3.40;;;;;;;15.90;84.47;99828.71;109948;1274;22191;-59
2023/06/30 02:13:10;;;;;;;9.60;3.30;;;;;;;15.96;84.36;99828.86;109935;1270;22295;-60
2023/06/30 02:15:41;;;;;;;14.60;3.70;;;;;;;15.99;84.37;99826.94;109929;1270;22154;-59
2023/06/30 02:18:13;;;;;;;9.00;3.00;;;;;;;16.02;84.33;99825.89;109983;1268;22330;-58
2023/06/30 02:20:44;;;;;;;9.00;3.10;;;;;;;16.04;84.56;99820.90;109966;1281;22153;-60
2023/06/30 02:23:15;;;;;;;10.40;3.20;;;;;;;16.06;84.59;99823.19;109941;1270;22146;-61
2023/06/30 02:25:45;;;;;;;10.10;3.50;;;;;;;16.06;85.00;99826.58;109961;1271;23142;-61
2023/06/30 02:28:16;;;;;;;12.20;3.50;;;;;;;16.05;85.26;99821.58;109946;1274;22198;-61
2023/06/30 02:30:47;;;;;;;10.70;3.80;;;;;;;16.05;85.38;99826.18;109931;1274;22167;-61
2023/06/30 02:33:18;;;;;;;10.80;3.50;;;;;;;16.04;85.55;99819.88;109931;1268;22387;-61
2023/06/30 02:35:50;;;;;;;10.10;3.20;;;;;;;16.05;85.48;99819.11;109957;1274;22949;-61
2023/06/30 02:38:21;;;;;;;8.50;2.80;;;;;;;16.06;85.56;99814.60;109926;1270;22186;-61
2023/06/30 02:40:52;;;;;;;9.80;3.70;;;;;;;16.07;85.54;99813.91;109966;1270;22998;-61
2023/06/30 02:43:23;;;;;;;11.80;3.80;;;;;;;16.09;85.63;99814.15;109962;1269;22158;-60
2023/06/30 02:45:54;;;;;;;11.70;3.30;;;;;;;16.10;85.63;99813.37;109967;1270;22174;-61
2023/06/30 02:48:25;;;;;;;10.50;3.40;;;;;;;16.12;85.60;99813.50;109962;1273;22425;-61
2023/06/30 02:50:56;;;;;;;9.10;3.20;;;;;;;16.13;85.64;99809.85;109949;1274;22196;-61
2023/06/30 02:53:27;;;;;;;8.10;2.80;;;;;;;16.15;85.53;99804.45;109966;1269;22986;-61
2023/06/30 02:55:57;;;;;;;13.70;4.20;;;;;;;16.18;85.25;99806.77;109966;1270;22311;-62
2023/06/30 02:58:28;;;;;;;11.20;3.60;;;;;;;16.21;85.46;99806.23;109977;1276;22152;-61
2023/06/30 03:00:59;;;;;;;9.00;3.30;;;;;;;16.23;85.53;99806.18;109950;1270;23007;-61
2023/06/30 03:03:30;;;;;;;9.10;3.70;;;;;;;16.24;85.76;99804.32;109958;1267;22177;-60
2023/06/30 03:06:01;;;;;;;10.20;3.40;;;;;;;16.24;85.82;99804.06;109953;1274;22160;-61
2023/06/30 03:08:31;;;;;;;10.20;3.50;;;;;;;16.26;85.67;99807.73;109955;1281;22125;-61
2023/06/30 03:11:02;;;;;;;12.80;3.20;;;;;;;16.27;86.09;99807.87;109952;1274;22283;-61
2023/06/30 03:13:33;;;;;;;9.70;3.70;;;;;;;16.27;86.05;99807.56;109943;1271;22196;-61
2023/06/30 03:16:05;;;;;;;11.20;3.80;;;;;;;16.26;86.29;99804.55;109950;1274;22333;-61
2023/06/30 03:18:36;;;;;;;10.40;4.00;;;;;;;16.27;86.24;99799.88;109948;1270;22756;-61
2023/06/30 03:21:07;;;;;;;11.20;3.40;;;;;;;16.30;86.02;99801.75;109962;1273;22176;-61
2023/06/30 03:23:40;;;;;;;13.50;4.30;;;;;;;16.33;86.16;99802.21;110014;1281;22913;-61
2023/06/30 03:26:13;;;;;;;11.00;3.80;;;;;;;16.34;86.08;99800.11;109962;1277;23039;-61
2023/06/30 03:28:44;;;;;;;9.50;3.30;;;;;;;16.35;86.24;99798.71;108105;1270;23168;-61
2023/06/30 03:31:15;;;;;;;14.00;4.10;;;;;;;16.37;86.15;99797.61;109936;1277;22342;-62
2023/06/30 03:33:46;;;;;;;11.70;4.10;;;;;;;16.38;85.99;99793.97;109955;1274;22938;-61
2023/06/30 03:36:17;;;;;;;10.20;3.90;;;;;;;16.39;86.19;99792.93;109956;1267;23017;-62
2023/06/30 03:38:48;;;;;;;12.00;3.60;;;;;;;16.39;86.20;99790.54;109943;1281;22202;-61
2023/06/30 03:41:19;;;;;;;11.80;4.10;;;;;;;16.40;86.09;99788.98;109941;1270;22927;-61
2023/06/30 03:43:50;;;;;;;13.60;3.90;;;;;;;16.42;86.14;99787.77;109958;1269;22923;-61
2023/06/30 03:46:21;;;;;;;11.60;3.40;;;;;;;16.42;86.32;99783.00;109964;1267;22172;-62
2023/06/30 03:48:52;;;;;;;12.40;4.00;;;;;;;16.43;86.27;99785.77;109981;1273;22213;-61
2023/06/30 03:51:23;;;;;;;14.70;4.60;;;;;;;16.42;86.50;99786.39;109939;1281;23053;-61
2023/06/30 03:53:54;;;;;;;11.10;3.30;;;;;;;16.40;86.68;99779.80;109970;1281;22165;-61
2023/06/30 03:56:25;;;;;;;11.00;3.60;;;;;;;16.40;86.81;99778.27;109964;1274;22160;-61
2023/06/30 03:58:56;;;;;;;16.00;5.00;;;;;;;16.41;86.81;99776.41;109977;1269;22984;-61
2023/06/30 04:01:26;;;;;;;12.30;4.30;;;;;;;16.42;86.62;99775.02;109950;1274;22131;-61
2023/06/30 04:03:57;;;;;;;10.50;3.30;;;;;;;16.44;86.80;99774.95;109914;1266;22331;-61
2023/06/30 04:06:28;;;;;;;12.10;3.70;;;;;;;16.47;86.57;99778.20;109931;1273;22183;-61
2023/06/30 04:08:59;;;;;;;12.60;4.50;;;;;;;16.49;86.70;99778.08;109963;1277;22324;-61
2023/06/30 04:11:30;;;;;;;12.40;3.90;;;;;;;16.51;86.79;99775.59;109936;1274;22409;-61
2023/06/30 04:14:01;;;;;;;10.20;3.90;;;;;;;16.52;86.73;99776.56;109943;1273;22163;-60
2023/06/30 04:16:32;;;;;;;14.50;4.10;;;;;;;16.53;86.59;99778.59;109949;1270;22171;-60
2023/06/30 04:19:03;;;;;;;11.20;3.50;;;;;;;16.56;86.74;99781.43;109937;1276;22303;-62
2023/06/30 04:21:34;;;;;;;14.20;4.40;;;;;;;16.59;86.74;99780.06;109960;1273;22392;-63
2023/06/30 04:24:06;;;;;;;12.90;3.70;;;;;;;16.60;86.97;99781.64;109948;1274;22325;-63
2023/06/30 04:26:37;;;;;;;13.90;4.00;;;;;;;16.61;86.81;99783.23;109912;1276;22297;-62
2023/06/30 04:29:08;;;;;;;11.70;4.30;;;;;;;16.59;86.74;99784.02;109930;1270;22183;-62
2023/06/30 04:31:39;;;;;;;14.00;4.20;;;;;;;16.60;86.92;99785.84;109941;1274;22972;-62
2023/06/30 04:34:10;;;;;;;17.30;4.60;;;;;;;16.62;86.80;99785.66;109935;1276;23041;-62
2023/06/30 04:36:41;;;;;;;13.80;3.90;;;;;;;16.64;87.06;99782.91;109948;1274;22161;-62
2023/06/30 04:39:12;;;;;;;14.90;4.50;;;;;;;16.66;86.97;99781.41;109940;1266;22340;-62
2023/06/30 04:41:43;;;;;;;11.00;4.00;;;;;;;16.68;87.31;99779.98;109966;1281;22187;-62
2023/06/30 04:44:14;;;;;;;14.40;5.20;;;;;;;16.72;87.05;99773.52;109941;1269;22181;-62
2023/06/30 04:46:45;;;;;;;13.60;5.90;;;;;;;16.76;86.90;99773.47;109951;1270;22320;-62
2023/06/30 04:49:15;;;;;;;14.00;5.60;;;;;;;16.81;87.07;99765.38;109962;1274;22477;-62
2023/06/30 04:51:47;;;;;;;12.80;5.30;;;;;;;16.85;87.02;99766.09;109924;1274;22210;-62
2023/06/30 04:54:19;;;;;;;16.10;4.70;;;;;;;16.87;87.22;99768.61;109949;1268;23063;-62
2023/06/30 04:56:50;;;;;;;17.80;5.20;;;;;;;16.90;87.27;99771.84;109971;1281;22184;-59
2023/06/30 04:59:21;;;;;;;13.60;5.00;;;;;;;16.92;87.19;99773.71;109952;1274;22262;-59
2023/06/30 05:01:51;;;;;;;13.20;5.00;;;;;;;16.94;87.29;99776.73;109889;1276;22147;-60
2023/06/30 05:04:23;;;;;;;13.30;4.40;;;;;;;16.97;87.09;99763.14;109942;1277;22197;-60
2023/06/30 05:06:53;;;;;;;11.90;4.50;;;;;;;17.01;87.41;99763.80;109897;1279;22162;-59
2023/06/30 05:09:25;;;;;;;15.50;4.80;;;;;;;17.02;87.31;99763.38;109939;1274;22263;-59
2023/06/30 05:11:56;;;;;;;15.80;4.50;;;;;;;17.05;87.35;99762.30;109963;1281;23407;-60
2023/06/30 05:14:26;;;;;;;16.10;4.80;;;;;;;17.08;87.44;99760.32;109954;1276;22285;-59
2023/06/30 05:16:57;;;;;;;12.90;4.10;;;;;;;17.09;87.48;99764.75;109925;1269;22134;-59
2023/06/30 05:19:28;;;;;;;12.80;4.20;;;;;;;17.10;87.66;99764.85;109963;1274;22603;-59
2023/06/30 05:21:59;;;;;;;11.60;4.70;;;;;;;17.11;87.65;99768.36;109922;1276;22312;-59
2023/06/30 05:24:30;;;;;;;13.10;5.20;;;;;;;17.14;87.79;99770.17;109957;1274;22185;-60
2023/06/30 05:27:01;;;;;;;14.90;4.50;;;;;;;17.17;87.93;99768.64;106523;1281;22657;-57
2023/06/30 05:29:32;;;;;;;15.30;5.30;;;;;;;17.21;87.97;99766.33;109961;1265;22985;-60
2023/06/30 05:32:04;;;;;;;14.10;5.20;;;;;;;17.25;88.03;99772.11;109923;1271;23030;-59
2023/06/30 05:34:34;;;;;;;15.30;5.00;;;;;;;17.28;88.13;99774.89;109951;1277;22176;-60
2023/06/30 05:37:06;;;;;;;15.60;5.40;;;;;;;17.32;88.18;99776.16;109914;1277;23007;-59
2023/06/30 05:39:37;;;;;;;13.40;5.10;;;;;;;17.35;88.08;99780.73;109982;1268;22163;-59
2023/06/30 05:42:09;;;;;;;15.90;5.00;;;;;;;17.39;87.98;99784.95;109937;1273;22208;-60
2023/06/30 05:44:40;;;;;;;17.50;4.80;;;;;;;17.45;88.09;99778.91;109940;1281;22169;-59
2023/06/30 05:47:11;;;;;;;12.50;4.80;;;;;;;17.50;88.07;99775.42;109949;1276;22175;-59
2023/06/30 05:49:42;;;;;;;12.60;3.80;;;;;;;17.56;87.56;99778.61;109945;1269;22965;-59
2023/06/30 05:52:13;;;;;;;23.50;4.60;;;;;;;17.62;87.45;99783.12;109954;1270;23063;-60
2023/06/30 05:54:44;;;;;;;12.00;4.30;;;;;;;17.67;87.30;99784.58;109970;1270;22918;-59
2023/06/30 05:57:15;;;;;;;12.40;3.40;;;;;;;17.74;87.51;99777.52;109928;1273;22992;-60
2023/06/30 05:59:46;;;;;;;13.70;4.90;;;;;;;17.81;87.99;99770.21;109951;1274;22205;-59
2023/06/30 06:02:17;;;;;;;13.40;5.40;;;;;;;17.89;87.95;99773.17;107520;1277;22527;-59
2023/06/30 06:04:51;;;;;;;15.20;5.10;;;;;;;17.96;87.87;99767.23;106019;1264;22520;-58
2023/06/30 06:07:22;;;;;;;9.80;4.10;;;;;;;18.05;87.64;99770.00;105994;1277;22519;-58
2023/06/30 06:09:53;;;;;;;12.80;4.60;;;;;;;18.13;87.72;99765.52;105910;1274;22551;-58
2023/06/30 06:12:23;;;;;;;11.00;3.70;;;;;;;18.21;87.73;99768.39;105984;1281;22542;-59
2023/06/30 06:14:54;;;;;;;15.50;4.30;;;;;;;18.29;87.69;99767.52;105965;1274;22539;-58
2023/06/30 06:17:26;;;;;;;13.50;4.80;;;;;;;18.35;87.41;99765.27;105997;1279;22533;-58
2023/06/30 06:19:58;;;;;;;13.00;3.30;;;;;;;18.42;87.39;99764.73;109954;1268;22085;-59
2023/06/30 06:22:29;;;;;;;17.20;4.40;;;;;;;18.48;87.00;99765.30;109936;1276;22159;-60
2023/06/30 06:25:00;;;;;;;13.90;3.60;;;;;;;18.57;86.68;99770.12;109160;1274;24369;-57
2023/06/30 06:27:36;;;;;;;11.00;3.60;;;;;;;18.66;86.58;99769.26;106047;1271;24510;-59
2023/06/30 06:30:08;;;;;;;14.50;3.30;;;;;;;18.74;86.39;99767.44;109973;1267;22833;-59
2023/06/30 06:32:40;;;;;;;12.00;2.90;;;;;;;18.85;86.29;99765.34;109928;1281;22163;-60
2023/06/30 06:35:11;;;;;;;13.40;3.10;;;;;;;18.98;86.40;99764.32;109956;1276;22155;-60
2023/06/30 06:37:43;;;;;;;13.90;3.50;;;;;;;19.11;86.35;99762.13;109943;1276;22209;-59
2023/06/30 06:40:14;;;;;;;13.10;3.10;;;;;;;19.23;86.05;99762.86;109942;1273;22339;-60
2023/06/30 06:42:45;;;;;;;12.00;3.30;;;;;;;19.36;85.58;99757.54;109952;1267;22161;-60
2023/06/30 06:45:17;;;;;;;9.90;3.20;;;;;;;19.50;85.20;99757.55;109959;1267;22290;-60
2023/06/30 06:48:19;;;;;;;10.40;3.00;;;;;;;19.64;84.91;99758.95;109969;1281;23016;-60
2023/06/30 06:50:51;;;;;;;10.80;2.80;;;;;;;19.77;84.10;99754.66;109969;1281;22321;-59
2023/06/30 06:53:25;;;;;;;9.60;3.20;;;;;;;19.86;83.84;99757.41;109936;1279;22171;-59
2023/06/30 06:55:57;;;;;;;10.40;2.70;;;;;;;19.97;83.95;99754.69;109960;1274;22330;-60
2023/06/30 06:58:30;;;;;;;13.40;3.30;;;;;;;20.07;83.41;99753.43;109948;1276;22207;-60
2023/06/30 07:01:02;;;;;;;8.20;2.70;;;;;;;20.17;83.46;99756.76;109945;1276;22319;-65
2023/06/30 07:03:33;;;;;;;10.30;3.00;;;;;;;20.29;83.10;99753.38;109958;1279;22166;-59
2023/06/30 07:06:06;;;;;;;12.90;2.80;;;;;;;20.40;82.61;99752.38;109968;1273;22200;-60
2023/06/30 07:08:38;;;;;;;9.70;2.20;;;;;;;20.54;82.46;99755.85;107240;1281;24275;-60
2023/06/30 07:11:10;;;;;;;14.30;2.50;;;;;;;20.66;82.03;99753.11;108348;1277;26879;-59
2023/06/30 07:13:41;;;;;;;12.20;2.00;;;;;;;20.78;81.08;99753.32;106235;1277;22741;-59
2023/06/30 07:16:13;;;;;;;9.00;2.70;;;;;;;20.84;80.68;99751.36;106070;1279;24251;-58
2023/06/30 07:18:43;;;;;;;13.50;2.10;;;;;;;20.95;80.61;99752.99;105958;1281;22551;-60
2023/06/30 07:21:14;;;;;;;7.60;1.90;;;;;;;21.10;80.28;99750.34;106018;1281;24494;-60
2023/06/30 07:23:48;;;;;;;7.70;1.90;;;;;;;21.19;78.95;99744.77;105992;1281;22996;-59
2023/06/30 07:26:19;;;;;;;8.60;2.10;;;;;;;21.27;79.41;99743.34;109917;1273;22193;-60
2023/06/30 07:28:50;;;;;;;6.30;1.50;;;;;;;21.38;78.43;99740.82;109941;1273;22221;-60
2023/06/30 07:31:21;;;;;;;8.10;1.60;;;;;;;21.48;78.34;99739.80;109920;1277;22142;-60
2023/06/30 07:33:52;;;;;;;6.80;1.60;;;;;;;21.62;78.19;99741.43;109955;1273;22158;-60
2023/06/30 07:36:23;;;;;;;7.20;1.30;;;;;;;21.78;77.98;99740.04;109955;1267;22284;-60
2023/06/30 07:38:54;;;;;;;11.30;1.60;;;;;;;21.92;76.49;99744.21;109989;1281;22185;-60
2023/06/30 07:41:34;;;;;;;9.80;1.50;;;;;;;22.03;75.91;99740.69;109968;1269;22676;-60
2023/06/30 07:44:16;;;;;;;7.90;2.10;;;;;;;22.14;75.66;99735.92;109956;1270;22177;-59
2023/06/30 07:46:47;;;;;;;7.30;1.60;;;;;;;22.27;75.80;99731.67;109964;1277;22363;-60
2023/06/30 07:49:18;;;;;;;8.80;1.80;;;;;;;22.38;75.42;99728.73;109929;1279;22137;-60
2023/06/30 07:51:50;;;;;;;9.00;1.50;;;;;;;22.51;74.92;99727.51;109968;1277;22157;-60
2023/06/30 07:54:21;;;;;;;6.80;1.70;;;;;;;22.64;74.45;99727.91;106593;1281;24126;-60
2023/06/30 07:56:52;;;;;;;9.60;1.70;;;;;;;22.76;74.16;99729.59;106019;1274;22533;-59
2023/06/30 07:59:24;;;;;;;8.30;1.60;;;;;;;22.85;73.55;99728.16;106120;1281;23176;-59
2023/06/30 08:01:55;;;;;;;9.50;1.60;;;;;;;22.96;73.22;99727.38;105944;1273;22649;-60
2023/06/30 08:04:26;;;;;;;6.70;1.50;;;;;;;23.11;73.31;99729.98;106180;1281;25305;-59
2023/06/30 08:06:57;;;;;;;9.20;1.60;;;;;;;23.27;72.69;99728.13;106303;1274;22537;-59
2023/06/30 08:09:28;;;;;;;10.70;1.60;;;;;;;23.43;71.84;99726.38;106202;1266;25369;-60
2023/06/30 08:12:00;;;;;;;14.30;1.40;;;;;;;23.55;71.28;99724.46;109848;1281;22314;-60
2023/06/30 08:14:30;;;;;;;9.30;1.90;;;;;;;23.69;71.52;99718.80;109947;1274;23146;-61
2023/06/30 08:17:02;;;;;;;9.50;1.70;;;;;;;23.84;71.16;99719.95;107411;1277;22569;-60
2023/06/30 08:19:33;;;;;;;10.20;1.70;;;;;;;24.01;70.55;99721.35;106279;1269;22527;-61
2023/06/30 08:22:06;;;;;;;8.50;1.60;;;;;;;24.21;69.78;99721.55;106125;1273;22709;-60
2023/06/30 08:24:36;;;;;;;8.50;1.20;;;;;;;24.36;68.47;99720.70;106069;1279;24274;-60
2023/06/30 08:27:08;;;;;;;5.00;1.10;;;;;;;24.46;67.76;99718.48;106100;1273;24272;-59
2023/06/30 08:29:39;;;;;;;4.40;1.00;;;;;;;24.56;67.24;99719.36;109986;1273;22958;-61
2023/06/30 08:32:11;;;;;;;6.50;1.10;;;;;;;24.69;66.92;99720.23;109964;1274;22210;-60
2023/06/30 08:34:43;;;;;;;6.90;1.40;;;;;;;24.77;65.60;99713.98;109961;1273;22205;-61
2023/06/30 08:37:14;;;;;;;8.70;1.50;;;;;;;24.87;64.56;99715.94;109981;1276;22971;-61
2023/06/30 08:39:45;;;;;;;6.40;1.10;;;;;;;24.94;63.60;99717.57;109961;1274;22173;-61
2023/06/30 08:42:18;;;;;;;4.40;1.10;;;;;;;24.99;63.47;99720.42;109981;1273;22268;-60
2023/06/30 08:44:52;;;;;;;9.00;1.10;;;;;;;25.03;62.78;99719.04;109999;1276;22214;-61
2023/06/30 08:47:25;;;;;;;7.50;1.20;;;;;;;25.01;62.44;99720.40;109964;1277;22220;-61
2023/06/30 08:49:57;;;;;;;5.30;1.10;;;;;;;25.02;62.24;99717.67;109990;1267;22315;-61
2023/06/30 08:52:29;;;;;;;7.90;1.30;;;;;;;25.02;61.22;99719.54;109970;1269;22336;-61
2023/06/30 08:55:02;;;;;;;6.40;1.70;;;;;;;25.03;61.16;99715.91;109979;1266;22183;-61
2023/06/30 08:57:34;;;;;;;6.50;1.30;;;;;;;25.04;60.53;99717.39;109982;1276;22136;-61
2023/06/30 09:00:06;;;;;;;6.70;1.30;;;;;;;25.04;60.82;99711.54;106263;1280;25332;-60
2023/06/30 09:02:38;;;;;;;10.90;1.10;;;;;;;25.06;60.66;99713.16;109976;1280;22210;-61
2023/06/30 09:05:10;;;;;;;6.90;2.00;;;;;;;25.09;60.52;99713.63;109960;1274;22673;-60
2023/06/30 09:07:46;;;;;;;8.00;1.20;;;;;;;25.15;60.35;99709.13;109984;1266;22669;-62
2023/06/30 09:10:17;;;;;;;5.30;1.20;;;;;;;25.19;60.11;99708.79;109993;1273;22164;-61
2023/06/30 09:12:49;;;;;;;6.30;1.20;;;;;;;25.20;59.32;99707.66;109979;1273;22157;-61
2023/06/30 09:15:20;;;;;;;8.50;1.20;;;;;;;25.18;59.16;99709.70;110018;1272;23513;-60
2023/06/30 09:17:52;;;;;;;6.30;1.10;;;;;;;25.19;59.47;99710.05;109988;1274;22872;-61
2023/06/30 09:20:24;;;;;;;14.80;1.50;;;;;;;25.21;59.41;99708.38;110004;1269;22347;-61
2023/06/30 09:22:55;;;;;;;5.90;1.20;;;;;;;25.22;59.33;99714.80;109978;1276;22183;-61
2023/06/30 09:25:42;;;;;;;6.10;1.00;;;;;;;25.22;59.69;99713.15;109993;1273;22193;-61
2023/06/30 09:28:14;;;;;;;6.80;1.30;;;;;;;25.22;59.24;99717.42;109968;1273;22221;-61
2023/06/30 09:30:47;;;;;;;7.10;1.20;;;;;;;25.20;58.87;99718.24;110002;1272;22254;-60
2023/06/30 09:33:20;;;;;;;8.30;1.30;;;;;;;25.19;58.46;99715.73;109947;1273;22616;-61
2023/06/30 09:35:51;;;;;;;5.70;0.90;;;;;;;25.16;57.97;99712.55;110007;1270;22415;-61
2023/06/30 09:38:22;;;;;;;7.50;1.00;;;;;;;25.13;57.58;99713.44;106436;1272;22546;-60
2023/06/30 09:40:53;;;;;;;7.40;1.00;;;;;;;25.11;57.53;99714.70;106025;1274;22530;-62
2023/06/30 09:43:26;;;;;;;12.60;1.60;;;;;;;25.10;57.97;99717.30;110008;1267;22231;-62
2023/06/30 09:45:59;;;;;;;7.20;1.20;;;;;;;25.08;57.56;99713.57;109970;1273;22333;-62
2023/06/30 09:48:38;;;;;;;3.60;0.90;;;;;;;25.05;57.40;99717.07;109983;1273;22211;-62
2023/06/30 09:51:09;;;;;;;6.00;1.00;;;;;;;25.01;57.16;99712.13;109967;1273;22188;-62
2023/06/30 09:53:42;;;;;;;5.30;0.90;;;;;;;24.96;56.88;99712.74;109985;1273;22218;-61
2023/06/30 09:56:21;;;;;;;7.40;1.20;;;;;;;24.89;57.15;99705.52;109994;1270;22186;-62
2023/06/30 09:58:56;;;;;;;7.80;1.20;;;;;;;24.85;57.42;99702.87;109995;1277;22155;-62
2023/06/30 10:01:27;;;;;;;6.50;1.00;;;;;;;24.80;57.47;99707.48;109976;1273;22200;-63
2023/06/30 10:03:58;;;;;;;7.40;1.00;;;;;;;24.76;57.58;99711.02;109990;1276;22213;-63
2023/06/30 10:06:31;;;;;;;8.20;1.20;;;;;;;24.74;57.81;99710.11;110000;1273;22871;-62
2023/06/30 10:09:04;;;;;;;10.00;1.40;;;;;;;24.73;57.94;99706.59;110032;1273;22216;-62
2023/06/30 10:11:36;;;;;;;4.20;1.20;;;;;;;24.70;58.15;99700.83;109979;1280;22140;-62
2023/06/30 10:14:07;;;;;;;6.20;1.20;;;;;;;24.69;58.46;99701.35;110020;1273;23014;-62
2023/06/30 10:16:39;;;;;;;6.90;1.10;;;;;;;24.70;58.58;99703.05;109974;1272;22248;-62
2023/06/30 10:19:11;;;;;;;5.60;1.00;;;;;;;24.73;59.07;99698.80;110001;1273;22211;-62
2023/06/30 10:21:42;;;;;;;6.20;1.10;;;;;;;24.77;59.16;99693.80;109985;1278;22193;-61
2023/06/30 10:24:13;;;;;;;7.30;1.10;;;;;;;24.79;59.40;99693.70;109966;1274;22427;-61
2023/06/30 10:26:46;;;;;;;9.30;1.10;;;;;;;24.79;59.42;99691.53;110009;1279;22199;-61
2023/06/30 10:29:17;;;;;;;9.70;1.10;;;;;;;24.78;59.50;99696.23;109995;1267;22177;-59
2023/06/30 10:31:48;;;;;;;5.10;1.00;;;;;;;24.79;59.60;99695.12;110000;1273;22168;-60
2023/06/30 10:34:20;;;;;;;5.80;1.20;;;;;;;24.81;59.48;99695.73;110043;1273;22932;-61
2023/06/30 10:36:51;;;;;;;7.00;1.20;;;;;;;24.80;59.63;99698.08;110037;1273;22556;-61
2023/06/30 10:39:22;;;;;;;5.30;1.00;;;;;;;24.81;59.79;99694.86;109990;1273;23030;-61
2023/06/30 10:41:56;;;;;;;7.10;1.10;;;;;;;24.83;59.86;99693.61;110013;1273;22185;-61
2023/06/30 10:44:38;;;;;;;4.10;1.10;;;;;;;24.84;60.00;99692.84;110023;1272;22330;-61
2023/06/30 10:47:10;;;;;;;5.20;1.00;;;;;;;24.86;59.83;99695.44;107411;1267;22486;-60
2023/06/30 10:49:42;;;;;;;6.10;0.80;;;;;;;24.88;60.13;99694.30;108544;1270;22553;-60
2023/06/30 10:52:25;;;;;;;7.30;1.00;;;;;;;24.89;59.70;99691.55;106214;1276;25359;-61
2023/06/30 10:55:04;;;;;;;3.30;0.80;;;;;;;24.90;59.86;99690.86;106337;1277;25527;-61
2023/06/30 10:57:39;;;;;;;9.70;1.30;;;;;;;24.87;59.21;99687.20;106262;1267;22664;-61
2023/06/30 11:00:14;;;;;;;6.80;1.30;;;;;;;24.84;59.07;99686.86;109973;1273;22103;-60
2023/06/30 11:02:54;;;;;;;9.30;1.20;;;;;;;24.83;59.12;99691.33;110055;1273;22228;-61
2023/06/30 11:05:29;;;;;;;10.30;1.30;;;;;;;24.82;59.06;99689.70;110028;1273;22816;-60
2023/06/30 11:08:09;;;;;;;5.90;1.30;;;;;;;24.81;58.74;99687.92;110006;1265;22144;-61
2023/06/30 11:10:45;;;;;;;6.30;0.90;;;;;;;24.81;58.51;99681.86;110039;1265;22859;-61
2023/06/30 11:13:16;;;;;;;7.40;1.10;;;;;;;24.81;57.85;99678.75;107587;1274;25312;-60
2023/06/30 11:15:56;;;;;;;8.80;1.10;;;;;;;24.84;57.80;99677.88;106156;1273;24268;-60
2023/06/30 11:18:25;;;;;;;;;;;;;;;24.91;58.15;99673.06;106124;1267;24253;-60
2023/06/30 11:21:04;;;;;;;6.10;0.90;;;;;;;24.95;57.45;99678.84;106217;1279;22620;-60
2023/06/30 11:23:37;;;;;;;8.20;1.00;;;;;;;24.99;57.72;99672.19;110033;1280;22168;-65
2023/06/30 11:26:15;;;;;;;5.70;0.90;;;;;;;25.05;57.59;99675.19;110010;1273;22198;-61
2023/06/30 11:28:48;;;;;;;6.90;1.00;;;;;;;25.11;57.93;99675.59;109996;1274;22226;-61
2023/06/30 11:31:20;;;;;;;7.70;1.00;;;;;;;25.16;57.90;99677.52;109966;1270;22173;-61
2023/06/30 11:33:52;;;;;;;4.70;1.20;;;;;;;25.21;57.65;99675.20;110000;1273;22214;-60
2023/06/30 11:36:22;;;;;;;4.60;1.00;;;;;;;25.21;56.68;99675.88;107866;1273;22777;-60
2023/06/30 11:38:53;;;;;;;4.30;0.90;;;;;;;25.22;56.98;99675.72;106194;1280;22527;-60
2023/06/30 11:41:26;;;;;;;4.90;1.20;;;;;;;25.24;56.72;99664.45;106144;1280;22537;-60
2023/06/30 11:43:57;;;;;;;4.90;1.00;;;;;;;25.25;56.88;99660.66;106233;1267;24271;-60